East Pepperell, Massachusetts
Current Conditions -  °F | °C
As of 11:51 PM on Saturday 20 Dec 2014 (Local Time) from KASH Reporting Station
Overcast Overcast  
Wind Chill: 31°   Ceiling: 4900
Heat Index: 31°   Visibility: 10mi
Dew Point: 23°   Wind: 0mph
Humidity: 72%   Direction: NA
Pressure: 30.31"   Gusts: NA
Location:  42.6719°N, 71.6029°W
Report Text: KASH 210451Z AUTO 00000KT 10SM OVC049 M01/M05 A3031 RMK AO2 T10051050 SLP522
Loading
Personal Weather Stations






























Interactive Weather Map New forecast layout! Learn more

10-Day Weather Forecast

Advertisements
Track Severe Weather on mobile